Kezdőlap
METAR-TAF:

METAR-TAF

Repülőterek :

Davenport Municipal Airport

Davenport, Iowa, Amerikai Egyesült Államok

földrajzi szélesség: 41-36-50N, földrajzi hosszúság: 090-35-29W, magasság: 229 m

Jelenlegi meteorológiai megfigyelések

A jelentés 57 perccel ezelõtt készült, 16:52 UTC
Kelet-délkeleti szél 8 kt
Hőmérséklet 28°C
Páratartalom 58%
Légköri nyomás 1020 hPa
Látótávolság: 16.1 km
Derült ég

METAR: KDVN 131652Z AUTO 11008KT 10SM CLR 28/19 A3011 RMK AO2 SLP188 T02780189

Idő: 12:49 (17:49 UTC)


TAF: hiányzik

Meteorológiai megfigyelések és előrejelzések több, mint 4000 repülőtéren (METAR és TAF jelentéseket).

A térképen piros és sárga pontok jelzik az elérhető meteorológiai állomásokat.

Mozgassa az egeret a pont fölött, hogy megjelenjen az állomás neve.

Azután kattintson az időjárási megfigyelések és előrejelzések megtekintéséhez.

A térkép megváltoztatása: kattintson a fekete keresztel jelölt zöld gombra ráközelítéshez, a vonallal jelölt zöld gombra távolításhoz, vagy a zöld nyilakra a szomszédos térképek eléréséhez.


METAR-TAF: